Time;durP1;ratioP1;P1;durP2;ratioP2;P2;SDS_P1;SDS_P2;PMS_P1;PMS_P2;Temp;Humidity;BMP_temperature;BMP_pressure;BME280_temperature;BME280_humidity;BME280_pressure;Samples;Min_cycle;Max_cycle;Signal;HPM_P1;HPM_P2
2021/07/17 00:00:14;;;;;;;12.95;5.90;;;26.90;59.90;;;;;;1882057;76;21077;-53
2021/07/17 00:02:44;;;;;;;7.80;5.72;;;26.90;59.90;;;;;;1881913;75;21108;-52
2021/07/17 00:05:16;;;;;;;12.03;6.35;;;26.90;59.90;;;;;;1881924;75;21056;-53
2021/07/17 00:07:46;;;;;;;14.85;5.83;;;26.90;59.60;;;;;;1881912;75;21112;-53
2021/07/17 00:10:25;;;;;;;15.05;6.15;;;26.90;59.50;;;;;;1881924;76;21045;-53
2021/07/17 00:12:54;;;;;;;11.55;5.67;;;26.90;59.30;;;;;;1881976;75;21628;-53
2021/07/17 00:15:24;;;;;;;9.70;5.72;;;26.90;59.20;;;;;;1882051;75;21099;-53
2021/07/17 00:17:54;;;;;;;7.85;5.65;;;26.80;59.50;;;;;;1881977;76;21033;-54
2021/07/17 00:20:23;;;;;;;9.38;5.67;;;26.70;59.70;;;;;;1881916;75;21029;-53
2021/07/17 00:22:52;;;;;;;11.65;6.08;;;26.60;59.90;;;;;;1881941;76;21029;-53
2021/07/17 00:25:23;;;;;;;13.10;6.50;;;26.60;60.10;;;;;;1904365;74;21095;-52
2021/07/17 00:27:54;;;;;;;15.00;6.60;;;26.60;60.30;;;;;;1914672;75;21528;-53
2021/07/17 00:30:23;;;;;;;10.70;6.53;;;26.60;60.50;;;;;;1914674;75;20996;-53
2021/07/17 00:32:53;;;;;;;12.07;6.47;;;26.60;60.70;;;;;;1914664;75;21032;-52
2021/07/17 00:35:22;;;;;;;12.53;6.58;;;26.60;60.60;;;;;;1914708;75;21075;-53
2021/07/17 00:37:51;;;;;;;13.25;6.10;;;26.60;60.60;;;;;;1914726;75;21064;-53
2021/07/17 00:40:21;;;;;;;12.20;5.70;;;26.60;60.70;;;;;;1914791;75;21032;-53
2021/07/17 00:42:52;;;;;;;9.90;5.95;;;26.50;60.50;;;;;;1914614;75;21056;-54
2021/07/17 00:45:22;;;;;;;11.20;6.05;;;26.50;60.70;;;;;;1914681;75;21079;-53
2021/07/17 00:47:52;;;;;;;10.72;6.20;;;26.50;60.70;;;;;;1914657;75;21137;-52
2021/07/17 00:50:22;;;;;;;8.10;5.37;;;26.40;60.70;;;;;;1914665;75;21027;-53
2021/07/17 00:52:52;;;;;;;10.58;6.42;;;26.40;60.90;;;;;;1914667;75;21071;-52
2021/07/17 00:55:25;;;;;;;11.18;6.17;;;26.40;61.10;;;;;;1914657;75;21004;-52
2021/07/17 00:57:55;;;;;;;12.47;6.33;;;26.40;61.20;;;;;;1914758;75;21024;-52
2021/07/17 01:00:24;;;;;;;8.50;5.78;;;26.30;61.10;;;;;;1914784;75;21032;-53
2021/07/17 01:03:02;;;;;;;8.60;6.20;;;26.20;61.20;;;;;;1914823;75;21036;-53
2021/07/17 01:05:31;;;;;;;10.82;6.47;;;26.20;61.70;;;;;;1912999;75;21877;-53
2021/07/17 01:08:01;;;;;;;10.10;6.33;;;26.10;61.80;;;;;;1914788;75;21149;-53
2021/07/17 01:10:31;;;;;;;14.60;6.05;;;26.10;62.00;;;;;;1914809;75;21028;-52
2021/07/17 01:13:00;;;;;;;10.75;5.85;;;26.10;62.70;;;;;;1914893;75;21106;-53
2021/07/17 01:15:30;;;;;;;9.43;5.90;;;26.10;61.80;;;;;;1914817;75;21443;-53
2021/07/17 01:17:59;;;;;;;9.50;5.70;;;26.10;61.70;;;;;;1914785;75;21105;-53
2021/07/17 01:20:29;;;;;;;11.45;6.22;;;26.10;61.80;;;;;;1914782;75;21032;-53
2021/07/17 01:22:58;;;;;;;9.88;6.03;;;26.10;62.00;;;;;;1914819;75;21035;-53
2021/07/17 01:25:31;;;;;;;15.35;6.50;;;26.10;62.00;;;;;;1914727;75;21051;-53
2021/07/17 01:28:00;;;;;;;10.43;6.00;;;26.10;61.60;;;;;;1914890;75;21043;-53
2021/07/17 01:30:32;;;;;;;8.45;5.95;;;26.00;61.70;;;;;;1914792;75;21036;-54
2021/07/17 01:33:01;;;;;;;10.65;5.80;;;25.90;61.90;;;;;;1914754;75;21517;-53
2021/07/17 01:35:31;;;;;;;11.05;6.25;;;25.90;62.10;;;;;;1914800;75;21024;-53
2021/07/17 01:38:00;;;;;;;12.07;6.70;;;26.00;62.30;;;;;;1914779;75;21092;-53
2021/07/17 01:40:30;;;;;;;12.58;6.10;;;26.00;62.10;;;;;;1914798;75;21036;-53
2021/07/17 01:42:59;;;;;;;9.90;6.00;;;26.00;62.10;;;;;;1914851;75;21093;-53
2021/07/17 01:45:31;;;;;;;10.40;6.60;;;26.00;62.10;;;;;;1914811;75;21043;-52
2021/07/17 01:48:01;;;;;;;13.85;6.50;;;26.00;61.90;;;;;;1874334;76;21054;-54
2021/07/17 01:50:32;;;;;;;13.70;6.45;;;26.00;61.70;;;;;;1914894;75;21082;-53
2021/07/17 01:53:01;;;;;;;7.40;6.22;;;26.00;61.90;;;;;;1915101;75;21094;-53
2021/07/17 01:55:31;;;;;;;12.60;6.33;;;26.10;61.70;;;;;;1914995;75;21032;-52
2021/07/17 01:58:00;;;;;;;11.80;7.30;;;26.00;61.70;;;;;;1914744;75;21028;-53
2021/07/17 02:00:30;;;;;;;11.30;6.75;;;26.00;61.30;;;;;;1914868;75;21048;-53
2021/07/17 02:02:59;;;;;;;10.30;6.60;;;26.00;61.60;;;;;;1914748;75;21036;-53
2021/07/17 02:05:30;;;;;;;12.18;7.08;;;26.00;61.70;;;;;;1914841;75;21031;-53
2021/07/17 02:08:00;;;;;;;14.05;7.05;;;26.00;61.60;;;;;;1914754;75;21024;-53
2021/07/17 02:10:31;;;;;;;13.25;7.12;;;26.00;61.60;;;;;;1914787;75;21035;-53
2021/07/17 02:13:05;;;;;;;15.90;7.12;;;26.00;61.70;;;;;;1914749;75;21091;-52
2021/07/17 02:15:35;;;;;;;;;;;26.00;61.70;;;;;;1917619;75;21028;-52
2021/07/17 02:18:04;;;;;;;12.85;8.65;;;26.00;61.40;;;;;;1914765;75;20182;-51
2021/07/17 02:20:34;;;;;;;12.35;7.45;;;26.00;60.90;;;;;;1914806;75;21130;-52
2021/07/17 02:23:04;;;;;;;14.85;8.70;;;25.90;61.20;;;;;;1914901;75;21028;-52
2021/07/17 02:25:34;;;;;;;10.40;6.90;;;25.90;61.50;;;;;;1905743;74;21128;-52
2021/07/17 02:28:04;;;;;;;14.95;8.08;;;25.90;61.60;;;;;;1826603;78;21071;-52
2021/07/17 02:30:33;;;;;;;12.90;7.33;;;25.90;61.70;;;;;;1882188;76;21569;-53
2021/07/17 02:33:03;;;;;;;15.38;8.08;;;25.90;61.70;;;;;;1826570;78;21141;-52
2021/07/17 02:35:32;;;;;;;26.45;15.38;;;25.90;61.80;;;;;;1826641;77;21091;-52
2021/07/17 02:38:02;;;;;;;22.32;12.70;;;25.90;61.70;;;;;;1826624;78;21020;-52
2021/07/17 02:40:32;;;;;;;12.40;9.33;;;25.90;61.80;;;;;;1826643;78;21110;-53
2021/07/17 02:43:01;;;;;;;16.45;8.83;;;25.90;61.80;;;;;;1826513;78;21114;-51
2021/07/17 02:45:30;;;;;;;15.28;7.90;;;25.90;61.70;;;;;;1826510;77;21083;-52
2021/07/17 02:48:00;;;;;;;15.20;8.20;;;25.90;61.80;;;;;;1826481;77;21098;-54
2021/07/17 02:50:29;;;;;;;16.95;8.03;;;25.90;61.60;;;;;;1826604;78;21116;-53
2021/07/17 02:52:59;;;;;;;12.15;7.95;;;26.00;61.70;;;;;;1882021;75;21115;-52
2021/07/17 02:55:29;;;;;;;21.45;8.65;;;26.00;61.60;;;;;;1826556;78;21102;-52
2021/07/17 02:57:58;;;;;;;13.50;7.47;;;26.10;61.30;;;;;;1826496;77;21040;-53
2021/07/17 03:00:33;;;;;;;17.95;8.63;;;26.00;61.30;;;;;;1826521;77;21024;-52
2021/07/17 03:02:58;;;;;;;21.12;8.75;;;26.00;61.40;;;;;;1826084;78;21189;-51
2021/07/17 03:05:28;;;;;;;18.77;9.23;;;26.00;61.50;;;;;;1826619;77;21040;-52
2021/07/17 03:07:57;;;;;;;13.10;6.95;;;26.00;61.50;;;;;;1826608;78;21047;-52
2021/07/17 03:10:27;;;;;;;15.63;8.08;;;26.10;61.80;;;;;;1826512;78;21040;-53
2021/07/17 03:12:56;;;;;;;15.45;7.67;;;26.10;61.90;;;;;;1826408;78;21040;-53
2021/07/17 03:15:26;;;;;;;19.27;8.03;;;26.10;61.60;;;;;;1826537;78;21040;-53
2021/07/17 03:17:55;;;;;;;18.10;8.18;;;26.10;61.50;;;;;;1826570;78;21118;-53
2021/07/17 03:20:24;;;;;;;18.55;8.88;;;26.20;61.60;;;;;;1826573;78;21024;-53
2021/07/17 03:22:54;;;;;;;18.80;10.08;;;26.30;61.20;;;;;;1826457;78;21161;-52
2021/07/17 03:25:24;;;;;;;18.35;8.60;;;26.30;61.00;;;;;;1826509;78;21577;-53
2021/07/17 03:27:53;;;;;;;15.18;8.48;;;26.40;60.90;;;;;;1865533;77;21060;-53
2021/07/17 03:30:23;;;;;;;27.25;8.38;;;26.50;60.70;;;;;;1865817;77;21091;-53
2021/07/17 03:32:52;;;;;;;18.32;8.80;;;26.60;60.60;;;;;;1865877;77;21113;-53
2021/07/17 03:35:22;;;;;;;18.92;9.00;;;26.70;60.30;;;;;;1865736;77;21036;-53
2021/07/17 03:37:51;;;;;;;17.30;8.03;;;26.80;60.40;;;;;;1865886;77;21049;-53
2021/07/17 03:40:21;;;;;;;20.00;9.33;;;26.90;60.50;;;;;;1902060;75;21025;-52
2021/07/17 03:42:50;;;;;;;23.67;9.78;;;27.00;60.50;;;;;;1902168;75;21090;-53
2021/07/17 03:45:20;;;;;;;19.50;9.45;;;27.00;60.50;;;;;;1902100;75;21032;-52
2021/07/17 03:47:49;;;;;;;31.07;10.35;;;27.00;60.50;;;;;;1902084;75;21028;-52
2021/07/17 03:50:18;;;;;;;14.90;8.23;;;27.10;60.20;;;;;;1902097;75;21086;-52
2021/07/17 03:52:48;;;;;;;23.25;10.43;;;27.10;60.00;;;;;;1902072;75;21020;-53
2021/07/17 03:55:18;;;;;;;16.23;8.93;;;27.10;59.90;;;;;;1902114;75;21044;-53
2021/07/17 03:57:47;;;;;;;21.70;10.00;;;27.20;59.90;;;;;;1902143;75;21550;-52
2021/07/17 04:00:17;;;;;;;13.38;8.80;;;27.20;60.00;;;;;;1902177;75;21048;-53
2021/07/17 04:02:47;;;;;;;17.02;8.73;;;27.20;60.10;;;;;;1901949;75;21037;-51
2021/07/17 04:05:19;;;;;;;14.90;8.73;;;27.30;60.20;;;;;;1902092;75;21028;-52
2021/07/17 04:07:48;;;;;;;17.57;8.75;;;27.40;60.20;;;;;;1902076;75;21008;-53
2021/07/17 04:10:18;;;;;;;18.70;8.90;;;27.50;60.10;;;;;;1902192;75;21020;-52
2021/07/17 04:12:47;;;;;;;18.65;8.70;;;27.70;59.90;;;;;;1901973;75;21103;-53
2021/07/17 04:15:17;;;;;;;16.52;8.78;;;27.90;59.50;;;;;;1902143;75;21032;-53
2021/07/17 04:17:46;;;;;;;14.38;8.33;;;28.00;58.80;;;;;;1902033;75;21079;-54
2021/07/17 04:20:16;;;;;;;18.52;8.58;;;28.10;59.00;;;;;;1902096;75;21009;-53
2021/07/17 04:22:45;;;;;;;21.10;9.05;;;28.20;57.90;;;;;;1901914;75;21033;-52
2021/07/17 04:25:15;;;;;;;22.10;9.35;;;28.30;57.70;;;;;;1901957;75;21127;-53
2021/07/17 04:27:44;;;;;;;18.52;8.13;;;28.40;57.70;;;;;;1917211;74;21099;-53
2021/07/17 04:30:14;;;;;;;13.58;7.70;;;28.60;57.60;;;;;;1924537;74;21159;-52
2021/07/17 04:32:43;;;;;;;16.77;7.70;;;28.60;56.80;;;;;;1924690;74;21157;-52
2021/07/17 04:35:13;;;;;;;14.85;6.37;;;28.70;56.50;;;;;;1924702;74;21035;-52
2021/07/17 04:37:42;;;;;;;11.70;5.47;;;28.80;56.00;;;;;;1924741;74;21097;-53
2021/07/17 04:40:12;;;;;;;15.35;6.75;;;28.90;55.70;;;;;;1924704;74;21040;-52
2021/07/17 04:42:42;;;;;;;11.28;5.90;;;28.90;55.10;;;;;;1924627;74;21160;-53
2021/07/17 04:45:11;;;;;;;10.03;5.62;;;28.90;54.80;;;;;;1924685;74;21023;-53
2021/07/17 04:47:41;;;;;;;13.03;6.85;;;29.00;54.80;;;;;;1924662;74;21028;-53
2021/07/17 04:50:11;;;;;;;16.93;6.75;;;29.00;55.30;;;;;;1924675;74;21093;-52
2021/07/17 04:52:40;;;;;;;18.95;7.75;;;29.10;54.60;;;;;;1924614;74;21007;-53
2021/07/17 04:55:10;;;;;;;18.15;7.92;;;29.20;54.30;;;;;;1924702;74;21117;-53
2021/07/17 04:57:40;;;;;;;23.85;10.75;;;29.20;54.10;;;;;;1924713;74;21019;-52
2021/07/17 05:00:10;;;;;;;22.17;11.45;;;29.20;53.30;;;;;;1924757;74;21000;-53
2021/07/17 05:02:53;;;;;;;24.12;11.48;;;29.30;52.90;;;;;;1924664;74;21028;-52
2021/07/17 05:05:24;;;;;;;31.15;14.25;;;29.40;53.00;;;;;;1924729;74;21032;-52
2021/07/17 05:07:54;;;;;;;28.90;12.98;;;29.50;52.70;;;;;;1924590;74;21129;-52
2021/07/17 05:10:25;;;;;;;24.70;9.53;;;29.50;52.40;;;;;;1924658;74;21101;-52
2021/07/17 05:12:54;;;;;;;28.27;14.07;;;29.60;52.50;;;;;;1924565;74;21065;-53
2021/07/17 05:15:24;;;;;;;36.23;15.32;;;29.80;51.90;;;;;;1924748;74;21407;-52
2021/07/17 05:17:53;;;;;;;29.42;16.15;;;29.90;51.60;;;;;;1924581;74;21081;-52
2021/07/17 05:20:23;;;;;;;35.68;17.80;;;29.90;51.10;;;;;;1924636;74;21105;-52
2021/07/17 05:22:53;;;;;;;34.55;17.82;;;29.90;50.70;;;;;;1924534;74;21024;-53
2021/07/17 05:25:22;;;;;;;47.50;20.00;;;30.00;50.70;;;;;;1924534;74;21027;-53
2021/07/17 05:27:51;;;;;;;34.35;14.83;;;30.00;50.50;;;;;;1915069;74;21044;-53
2021/07/17 05:30:21;;;;;;;29.95;13.13;;;30.10;51.20;;;;;;1901974;75;21044;-53
2021/07/17 05:32:50;;;;;;;31.65;14.90;;;30.20;51.90;;;;;;1901971;75;21033;-54
2021/07/17 05:35:20;;;;;;;25.37;12.93;;;30.30;51.30;;;;;;1902182;75;21064;-53
2021/07/17 05:37:50;;;;;;;28.57;11.45;;;30.40;51.50;;;;;;1902034;75;21024;-54
2021/07/17 05:40:19;;;;;;;16.12;9.28;;;30.40;51.20;;;;;;1902209;75;21098;-53
2021/07/17 05:42:49;;;;;;;22.67;10.13;;;30.50;51.20;;;;;;1902013;75;21090;-54
2021/07/17 05:45:18;;;;;;;16.15;8.25;;;30.50;51.20;;;;;;1902057;75;21028;-53
2021/07/17 05:47:48;;;;;;;22.90;9.00;;;30.60;51.20;;;;;;1902116;75;21024;-53
2021/07/17 05:50:19;;;;;;;12.28;7.58;;;30.60;50.90;;;;;;1902027;75;21020;-53
2021/07/17 05:52:49;;;;;;;17.92;8.53;;;30.70;51.00;;;;;;1901956;75;21102;-53
2021/07/17 05:55:19;;;;;;;30.32;10.88;;;30.80;50.80;;;;;;1902087;75;21004;-54
2021/07/17 05:57:48;;;;;;;22.42;10.10;;;30.80;50.90;;;;;;1902093;75;21016;-53
2021/07/17 06:00:20;;;;;;;14.87;8.13;;;30.90;50.90;;;;;;1902146;75;21081;-53
2021/07/17 06:02:49;;;;;;;19.98;7.53;;;31.00;50.70;;;;;;1902058;75;21467;-54
2021/07/17 06:05:19;;;;;;;15.55;6.97;;;31.10;50.60;;;;;;1901937;75;21083;-54
2021/07/17 06:07:49;;;;;;;27.45;8.98;;;31.20;50.00;;;;;;1901876;75;21114;-52
2021/07/17 06:10:18;;;;;;;20.02;7.78;;;31.20;50.00;;;;;;1902238;75;21032;-53
2021/07/17 06:12:47;;;;;;;16.37;6.80;;;31.30;49.90;;;;;;1901984;75;21008;-53
2021/07/17 06:15:17;;;;;;;14.33;6.83;;;31.30;49.40;;;;;;1902141;75;21029;-53
2021/07/17 06:17:46;;;;;;;15.80;6.60;;;31.40;49.10;;;;;;1902113;75;21102;-54
2021/07/17 06:20:15;;;;;;;17.35;7.12;;;31.50;48.90;;;;;;1902146;75;21068;-53
2021/07/17 06:22:45;;;;;;;16.70;7.12;;;31.70;48.60;;;;;;1902128;75;21090;-53
2021/07/17 06:25:14;;;;;;;17.57;7.20;;;31.80;48.40;;;;;;1902022;75;21028;-53
2021/07/17 06:27:44;;;;;;;17.32;7.10;;;31.80;48.40;;;;;;1905003;74;21078;-53
2021/07/17 06:30:14;;;;;;;14.53;7.65;;;31.90;48.70;;;;;;1924608;74;21008;-53
2021/07/17 06:32:43;;;;;;;17.42;7.60;;;32.00;48.70;;;;;;1924530;74;21028;-53
2021/07/17 06:35:14;;;;;;;20.25;8.58;;;32.10;48.50;;;;;;1924531;74;21031;-53
2021/07/17 06:37:43;;;;;;;17.50;6.28;;;32.10;48.30;;;;;;1924557;74;21004;-53
2021/07/17 06:40:14;;;;;;;21.25;7.42;;;32.20;47.90;;;;;;1924646;74;21133;-53
2021/07/17 06:42:49;;;;;;;21.52;6.92;;;32.30;47.60;;;;;;1924588;74;21032;-53
2021/07/17 06:45:19;;;;;;;15.25;6.62;;;32.40;47.40;;;;;;1924648;74;21028;-54
2021/07/17 06:47:49;;;;;;;17.17;7.28;;;32.40;47.00;;;;;;1924560;74;21027;-53
2021/07/17 06:50:20;;;;;;;26.10;8.03;;;32.40;46.70;;;;;;1924599;74;21024;-53
2021/07/17 06:52:50;;;;;;;19.23;8.28;;;32.40;46.60;;;;;;1924531;74;21028;-53
2021/07/17 06:55:19;;;;;;;27.00;12.95;;;32.40;46.50;;;;;;1924645;74;21031;-54
2021/07/17 06:57:48;;;;;;;21.87;9.95;;;32.50;46.40;;;;;;1924558;74;21031;-53
2021/07/17 07:00:19;;;;;;;30.57;10.15;;;32.50;46.30;;;;;;1924621;74;21114;-53
2021/07/17 07:02:48;;;;;;;22.73;9.50;;;32.50;46.20;;;;;;1924514;74;21094;-53
2021/07/17 07:05:18;;;;;;;19.52;9.05;;;32.60;46.30;;;;;;1924615;74;21036;-53
2021/07/17 07:07:47;;;;;;;32.00;12.13;;;32.60;46.10;;;;;;1924550;74;21007;-53
2021/07/17 07:10:17;;;;;;;30.77;11.57;;;32.70;45.90;;;;;;1924589;74;21082;-53
2021/07/17 07:12:46;;;;;;;28.83;11.95;;;32.90;45.50;;;;;;1924551;74;21024;-53
2021/07/17 07:15:16;;;;;;;32.83;12.78;;;32.80;45.40;;;;;;1924665;74;21087;-53
2021/07/17 07:17:46;;;;;;;34.23;12.30;;;32.90;45.40;;;;;;1924554;74;21059;-53
2021/07/17 07:20:16;;;;;;;30.85;12.50;;;32.90;45.30;;;;;;1924528;74;21071;-53
2021/07/17 07:22:45;;;;;;;31.62;12.20;;;32.90;45.60;;;;;;1924697;74;21075;-53
2021/07/17 07:25:15;;;;;;;26.57;12.45;;;33.00;45.60;;;;;;1924528;74;21180;-54
2021/07/17 07:27:45;;;;;;;27.93;12.33;;;33.00;45.10;;;;;;1924563;74;21020;-54
2021/07/17 07:30:15;;;;;;;34.23;14.30;;;33.00;45.20;;;;;;1904359;74;21056;-53
2021/07/17 07:32:44;;;;;;;34.13;14.38;;;33.10;45.30;;;;;;1902004;75;21127;-54
2021/07/17 07:35:13;;;;;;;20.40;10.50;;;33.20;45.20;;;;;;1902075;75;21090;-53
2021/07/17 07:37:43;;;;;;;20.23;8.30;;;33.30;45.20;;;;;;1902190;75;21161;-53
2021/07/17 07:40:13;;;;;;;23.92;8.20;;;33.40;44.40;;;;;;1902077;75;21090;-53
2021/07/17 07:42:43;;;;;;;15.03;8.10;;;33.50;43.80;;;;;;1901881;75;21004;-53
2021/07/17 07:45:13;;;;;;;23.60;8.35;;;33.60;43.10;;;;;;1902009;75;21057;-53
2021/07/17 07:47:43;;;;;;;17.98;7.70;;;33.70;42.40;;;;;;1901932;75;21033;-53
2021/07/17 07:50:12;;;;;;;18.48;6.60;;;33.70;42.30;;;;;;1902090;75;21102;-53
2021/07/17 07:52:42;;;;;;;21.37;8.13;;;33.70;41.90;;;;;;1902075;75;21036;-52
2021/07/17 07:55:11;;;;;;;24.35;10.18;;;33.70;42.00;;;;;;1902018;75;21004;-53
2021/07/17 07:57:41;;;;;;;12.98;7.30;;;33.80;42.00;;;;;;1902033;75;21099;-52
2021/07/17 08:00:12;;;;;;;13.10;6.70;;;33.90;41.70;;;;;;1901995;75;21082;-53
2021/07/17 08:02:41;;;;;;;17.92;6.17;;;33.90;41.60;;;;;;1902027;75;21464;-53
2021/07/17 08:05:11;;;;;;;17.73;6.12;;;34.00;42.60;;;;;;1901934;75;21016;-53
2021/07/17 08:07:41;;;;;;;21.27;6.65;;;34.00;41.90;;;;;;1901981;75;21042;-53
2021/07/17 08:10:11;;;;;;;22.52;7.00;;;34.20;41.90;;;;;;1902109;75;21431;-53
2021/07/17 08:12:40;;;;;;;17.20;6.85;;;34.20;41.70;;;;;;1902089;75;21024;-54
2021/07/17 08:15:10;;;;;;;14.68;6.90;;;34.30;42.40;;;;;;1901907;75;21142;-54
2021/07/17 08:17:40;;;;;;;17.48;6.62;;;34.30;42.00;;;;;;1901999;75;21060;-53
2021/07/17 08:20:10;;;;;;;14.78;6.22;;;34.40;42.70;;;;;;1901925;75;21032;-53
2021/07/17 08:22:40;;;;;;;19.42;6.45;;;34.40;42.10;;;;;;1901906;75;21098;-53
2021/07/17 08:25:10;;;;;;;13.68;6.67;;;34.30;42.20;;;;;;1901930;75;21095;-54
2021/07/17 08:27:39;;;;;;;22.22;9.40;;;34.30;42.20;;;;;;1901831;75;21147;-54
2021/07/17 08:30:11;;;;;;;24.92;7.22;;;34.30;42.50;;;;;;1901836;75;21060;-54
2021/07/17 08:32:40;;;;;;;18.57;6.53;;;34.40;42.70;;;;;;1901906;75;21103;-54
2021/07/17 08:35:10;;;;;;;15.80;5.62;;;34.50;42.80;;;;;;1902003;75;21024;-53
2021/07/17 08:37:40;;;;;;;13.00;5.75;;;34.60;42.10;;;;;;1901929;75;21009;-54
2021/07/17 08:40:10;;;;;;;12.53;5.45;;;34.60;42.00;;;;;;1901892;75;21086;-53
2021/07/17 08:42:44;;;;;;;22.77;6.97;;;34.70;42.20;;;;;;1901981;75;21525;-54
2021/07/17 08:45:14;;;;;;;11.15;5.67;;;34.70;42.30;;;;;;1901985;75;21029;-53
2021/07/17 08:47:45;;;;;;;12.18;5.95;;;34.80;42.00;;;;;;1901861;75;21094;-53
2021/07/17 08:50:21;;;;;;;12.00;4.70;;;34.90;41.80;;;;;;1901957;75;21060;-53
2021/07/17 08:52:55;;;;;;;32.30;6.97;;;34.90;41.50;;;;;;1902095;75;21009;-54
2021/07/17 08:55:26;;;;;;;20.20;5.92;;;34.90;41.30;;;;;;1902029;75;21045;-53
2021/07/17 08:57:56;;;;;;;10.80;5.40;;;34.80;41.60;;;;;;1902009;75;21048;-53
2021/07/17 09:00:29;;;;;;;16.12;4.90;;;34.90;41.60;;;;;;1901928;75;21048;-53
2021/07/17 09:03:01;;;;;;;116.95;104.90;;;35.00;41.90;;;;;;1900734;75;21094;-53
2021/07/17 09:05:33;;;;;;;17.48;6.15;;;35.00;41.40;;;;;;1901989;75;20989;-54
2021/07/17 09:08:03;;;;;;;22.07;15.15;;;35.00;41.20;;;;;;1901964;75;21107;-53
2021/07/17 09:10:34;;;;;;;20.75;10.18;;;35.00;41.60;;;;;;1901948;75;21028;-53
2021/07/17 09:13:15;;;;;;;14.63;5.95;;;35.00;42.10;;;;;;1901947;75;21048;-54
2021/07/17 09:15:46;;;;;;;14.40;6.12;;;34.90;41.90;;;;;;1901921;75;21016;-53
2021/07/17 09:18:17;;;;;;;16.23;5.35;;;35.00;41.90;;;;;;1902077;75;21533;-54
2021/07/17 09:21:05;;;;;;;7.90;5.70;;;35.10;41.90;;;;;;1883789;75;21154;-53
2021/07/17 09:23:37;;;;;;;9.20;5.42;;;35.10;41.80;;;;;;1893666;75;21036;-54
2021/07/17 09:26:24;;;;;;;19.70;6.20;;;35.20;42.40;;;;;;1902236;75;21091;-54
2021/07/17 09:29:11;;;;;;;9.13;5.30;;;35.20;42.40;;;;;;1902284;75;21049;-53
2021/07/17 09:31:52;;;;;;;12.15;5.25;;;35.20;41.80;;;;;;1902245;74;21056;-53
2021/07/17 09:34:24;;;;;;;15.18;5.75;;;35.20;41.60;;;;;;1902120;75;21005;-54
2021/07/17 09:37:01;;;;;;;12.95;5.55;;;35.10;41.60;;;;;;1902158;75;21029;-54
2021/07/17 09:39:33;;;;;;;14.80;5.65;;;35.20;42.30;;;;;;1902115;75;21033;-54
2021/07/17 09:42:04;;;;;;;12.18;5.65;;;35.30;42.20;;;;;;1902091;75;21052;-53
2021/07/17 09:44:35;;;;;;;9.03;5.47;;;35.30;41.60;;;;;;1901758;75;21087;-54
2021/07/17 09:47:15;;;;;;;18.50;6.92;;;35.30;41.40;;;;;;1902125;75;21024;-54
2021/07/17 09:49:45;;;;;;;12.90;5.37;;;35.30;41.20;;;;;;1902152;75;21090;-54
2021/07/17 09:52:17;;;;;;;13.93;5.90;;;35.30;41.70;;;;;;1902134;75;21060;-54
2021/07/17 09:55:06;;;;;;;16.80;5.35;;;35.30;42.00;;;;;;1902191;75;21090;-53
2021/07/17 09:57:35;;;;;;;16.07;5.17;;;35.40;41.50;;;;;;1902118;75;21098;-54
2021/07/17 10:00:13;;;;;;;10.80;5.25;;;35.40;41.70;;;;;;1902179;75;21009;-54
2021/07/17 10:02:43;;;;;;;26.97;12.47;;;35.50;40.70;;;;;;1902017;75;21098;-54
2021/07/17 10:05:17;;;;;;;17.12;6.55;;;35.50;40.90;;;;;;1902174;75;21033;-54
2021/07/17 10:07:46;;;;;;;20.30;6.47;;;35.60;41.10;;;;;;1902312;75;21071;-54
2021/07/17 10:10:15;;;;;;;8.80;5.08;;;35.50;41.10;;;;;;1902040;75;21029;-54
2021/07/17 10:12:45;;;;;;;12.95;5.42;;;35.50;41.30;;;;;;1902200;75;21009;-54
2021/07/17 10:15:17;;;;;;;20.25;6.47;;;35.60;41.00;;;;;;1902181;75;21029;-52
2021/07/17 10:17:49;;;;;;;12.65;5.05;;;35.70;41.50;;;;;;1902198;75;21024;-55
2021/07/17 10:20:18;;;;;;;13.60;6.22;;;35.70;41.80;;;;;;1902160;75;21028;-55
2021/07/17 10:22:48;;;;;;;11.55;5.15;;;35.80;41.50;;;;;;1902004;75;21061;-55
2021/07/17 10:25:17;;;;;;;12.95;5.37;;;35.80;41.30;;;;;;1902014;75;21033;-55
2021/07/17 10:27:47;;;;;;;15.50;5.67;;;35.90;41.10;;;;;;1902028;75;21154;-55
2021/07/17 10:30:17;;;;;;;10.63;5.08;;;36.00;41.10;;;;;;1897195;75;21065;-55
2021/07/17 10:32:47;;;;;;;12.28;5.15;;;35.90;40.50;;;;;;1872654;75;21029;-55
2021/07/17 10:35:16;;;;;;;8.48;5.00;;;35.90;40.40;;;;;;1872615;77;21081;-55
2021/07/17 10:37:48;;;;;;;9.83;4.80;;;36.00;40.40;;;;;;1872863;75;21029;-55
2021/07/17 10:40:22;;;;;;;10.32;5.47;;;35.90;40.10;;;;;;1872696;76;21076;-55
2021/07/17 10:42:53;;;;;;;19.55;5.80;;;35.80;40.30;;;;;;1872948;77;21045;-55
2021/07/17 10:45:36;;;;;;;14.50;5.12;;;35.90;40.20;;;;;;1871804;76;21022;-55
2021/07/17 10:48:24;;;;;;;17.90;6.03;;;36.00;40.00;;;;;;1872832;76;20997;-55
2021/07/17 10:50:55;;;;;;;11.65;5.80;;;36.10;40.50;;;;;;1872666;77;20997;-54
2021/07/17 10:53:44;;;;;;;17.10;5.78;;;36.20;40.20;;;;;;1872850;75;21042;-55
2021/07/17 10:56:33;;;;;;;12.28;5.03;;;36.30;39.90;;;;;;1872686;76;21095;-55
2021/07/17 10:59:13;;;;;;;10.58;5.28;;;36.40;40.10;;;;;;1872676;76;21022;-55
2021/07/17 11:02:04;;;;;;;8.68;5.45;;;36.50;39.80;;;;;;1872601;76;21014;-55
2021/07/17 11:04:36;;;;;;;12.58;5.35;;;36.60;39.30;;;;;;1872800;76;21133;-55
2021/07/17 11:07:26;;;;;;;8.60;4.83;;;36.60;38.70;;;;;;1872806;75;21139;-55
2021/07/17 11:10:10;;;;;;;13.20;5.17;;;36.70;39.50;;;;;;1872704;76;21037;-55
2021/07/17 11:12:46;;;;;;;;;;;36.60;38.80;;;;;;1875632;75;21038;-55
2021/07/17 11:15:21;;;;;;;10.78;5.10;;;36.60;39.30;;;;;;1872622;75;20140;-55
2021/07/17 11:17:54;;;;;;;13.20;5.12;;;36.60;38.90;;;;;;1872699;77;21022;-55
2021/07/17 11:20:39;;;;;;;12.88;5.53;;;36.70;38.50;;;;;;1872957;76;21018;-56
2021/07/17 11:23:16;;;;;;;17.92;4.87;;;36.70;38.80;;;;;;1872494;76;21057;-56
2021/07/17 11:25:59;;;;;;;10.38;5.25;;;36.70;38.80;;;;;;1872758;75;21041;-56
2021/07/17 11:28:35;;;;;;;;;;;36.70;38.80;;;;;;1875517;75;21099;-56
2021/07/17 11:31:07;;;;;;;22.77;5.60;;;36.70;37.30;;;;;;1841035;75;20155;-56
2021/07/17 11:33:36;;;;;;;10.70;4.45;;;36.70;38.10;;;;;;1877100;75;21079;-55
2021/07/17 11:36:08;;;;;;;13.75;5.30;;;36.70;37.40;;;;;;1914352;75;21024;-56
2021/07/17 11:38:41;;;;;;;14.25;4.97;;;36.80;37.10;;;;;;1907816;75;21127;-56
2021/07/17 11:41:09;;;;;;;13.45;4.78;;;36.80;37.20;;;;;;1914150;75;21028;-56
2021/07/17 11:43:38;;;;;;;18.30;4.67;;;36.90;36.70;;;;;;1914362;75;21024;-55
2021/07/17 11:46:08;;;;;;;17.75;7.58;;;36.90;37.10;;;;;;1914426;75;21028;-56
2021/07/17 11:48:37;;;;;;;9.40;4.83;;;37.00;37.10;;;;;;1914439;75;21048;-56
2021/07/17 11:51:07;;;;;;;8.08;4.25;;;37.10;36.80;;;;;;1914361;75;21067;-56
2021/07/17 11:53:36;;;;;;;12.50;4.97;;;37.10;36.80;;;;;;1914313;75;21138;-56
2021/07/17 11:56:06;;;;;;;13.60;4.40;;;37.10;36.70;;;;;;1914323;75;21122;-56
2021/07/17 11:58:35;;;;;;;17.52;4.47;;;37.20;36.60;;;;;;1914377;75;21114;-56
2021/07/17 12:01:07;;;;;;;13.35;4.53;;;37.20;36.70;;;;;;1914295;75;21082;-56
2021/07/17 12:03:36;;;;;;;14.68;5.05;;;37.10;36.60;;;;;;1914496;75;21111;-55
2021/07/17 12:06:06;;;;;;;15.53;4.58;;;37.10;36.40;;;;;;1914307;75;21194;-55
2021/07/17 12:08:35;;;;;;;12.73;4.47;;;37.10;36.10;;;;;;1914424;75;21102;-55
2021/07/17 12:11:07;;;;;;;14.40;4.70;;;37.20;36.30;;;;;;1914394;75;21106;-56
2021/07/17 12:13:37;;;;;;;10.25;4.95;;;37.20;36.60;;;;;;1912097;75;21103;-54
2021/07/17 12:16:06;;;;;;;20.40;5.30;;;37.20;36.50;;;;;;1914374;75;21075;-56
2021/07/17 12:18:35;;;;;;;14.10;4.78;;;37.20;36.20;;;;;;1914334;75;21028;-56
2021/07/17 12:21:05;;;;;;;13.13;4.08;;;37.20;36.10;;;;;;1914379;75;21188;-56
2021/07/17 12:23:36;;;;;;;14.87;4.55;;;37.20;36.00;;;;;;1914525;75;21078;-56
2021/07/17 12:26:06;;;;;;;14.33;4.22;;;37.30;35.90;;;;;;1914451;75;21008;-57
2021/07/17 12:28:41;;;;;;;15.53;4.92;;;37.30;36.00;;;;;;1914357;75;21499;-57
2021/07/17 12:31:14;;;;;;;;;;;37.30;36.30;;;;;;1915923;75;21008;-55
2021/07/17 12:33:49;;;;;;;7.92;4.30;;;37.30;35.90;;;;;;1901391;75;20107;-57
2021/07/17 12:36:21;;;;;;;13.00;4.50;;;37.30;35.70;;;;;;1902093;75;21087;-57
2021/07/17 12:38:55;;;;;;;11.22;4.00;;;37.40;35.60;;;;;;1902114;75;21041;-57
2021/07/17 12:41:31;;;;;;;7.72;4.10;;;37.50;35.50;;;;;;1901497;75;21060;-57
2021/07/17 12:44:03;;;;;;;12.78;4.40;;;37.40;34.80;;;;;;1902061;75;21090;-57
2021/07/17 12:46:35;;;;;;;27.60;14.00;;;37.30;34.30;;;;;;1902079;75;21064;-57
2021/07/17 12:49:18;;;;;;;31.20;15.48;;;37.40;34.30;;;;;;1901960;75;21036;-56
2021/07/17 12:51:53;;;;;;;13.53;8.08;;;37.40;34.30;;;;;;1902094;75;21016;-56
2021/07/17 12:54:24;;;;;;;6.80;4.15;;;37.50;33.30;;;;;;1874333;76;21708;-56
2021/07/17 12:56:56;;;;;;;8.43;4.67;;;37.50;33.20;;;;;;1913232;75;21110;-54